Time;durP1;ratioP1;P1;durP2;ratioP2;P2;SDS_P1;SDS_P2;PMS_P1;PMS_P2;Temp;Humidity;BMP_temperature;BMP_pressure;BME280_temperature;BME280_humidity;BME280_pressure;Samples;Min_cycle;Max_cycle;Signal;HPM_P1;HPM_P2
2023/10/20 04:03:25;;;;;;;16.27;9.27;;;;;;;13.79;100.00;97270.31;5068341;23;20234;-67
2023/10/20 04:05:52;;;;;;;14.83;8.30;;;;;;;13.73;100.00;97270.63;5045576;28;20230;-69
2023/10/20 04:08:19;;;;;;;15.33;8.60;;;;;;;13.74;100.00;97261.72;5047646;28;20559;-70
2023/10/20 04:10:45;;;;;;;18.10;8.93;;;;;;;13.72;100.00;97248.50;5049165;28;20598;-70
2023/10/20 04:13:12;;;;;;;19.03;9.90;;;;;;;13.73;100.00;97236.06;5034639;28;20204;-68
2023/10/20 04:15:39;;;;;;;19.67;9.67;;;;;;;13.71;100.00;97221.97;5042496;28;20620;-70
2023/10/20 04:18:06;;;;;;;17.93;9.43;;;;;;;13.71;100.00;97214.88;5040654;28;20682;-68
2023/10/20 04:20:42;;;;;;;17.00;9.40;;;;;;;13.74;100.00;97200.53;5040648;28;20253;-68
2023/10/20 04:23:09;;;;;;;16.37;9.57;;;;;;;13.64;100.00;97189.53;5039122;28;20281;-69
2023/10/20 04:25:49;;;;;;;16.17;9.90;;;;;;;13.63;100.00;97190.47;5045629;28;20209;-70
2023/10/20 04:28:18;;;;;;;18.33;9.50;;;;;;;13.63;100.00;97189.59;5041330;28;20225;-68
2023/10/20 04:47:40;;;;;;;18.40;8.90;;;;;;;13.56;100.00;97138.50;5036351;28;20203;-68
2023/10/20 04:52:58;;;;;;;17.07;9.13;;;;;;;13.59;100.00;97113.56;5033572;28;20304;-69
2023/10/20 04:58:04;;;;;;;21.30;9.27;;;;;;;13.54;100.00;97120.91;5039056;28;20253;-70
2023/10/20 05:00:35;;;;;;;15.67;9.00;;;;;;;13.52;100.00;97134.28;5036084;28;20225;-69
2023/10/20 05:05:41;;;;;;;18.50;9.20;;;;;;;13.47;100.00;97129.19;5044884;28;20307;-68
2023/10/20 05:10:40;;;;;;;16.33;9.30;;;;;;;13.47;100.00;97101.75;5041365;28;20249;-68
2023/10/20 05:13:09;;;;;;;19.23;9.90;;;;;;;13.45;100.00;97085.88;5039097;28;20223;-70
2023/10/20 05:15:41;;;;;;;15.10;8.87;;;;;;;13.46;100.00;97078.78;5041794;28;20221;-70
2023/10/20 05:18:14;;;;;;;15.37;9.60;;;;;;;13.48;100.00;97071.56;5039112;28;20222;-70
2023/10/20 05:20:42;;;;;;;16.97;9.50;;;;;;;13.48;100.00;97074.22;5039550;28;20265;-70
2023/10/20 05:23:10;;;;;;;16.70;9.20;;;;;;;13.44;100.00;97052.25;5037154;28;20253;-69
2023/10/20 05:25:44;;;;;;;16.17;9.23;;;;;;;13.40;100.00;97042.72;5039343;28;20203;-70
2023/10/20 05:28:11;;;;;;;18.30;9.90;;;;;;;13.36;100.00;97035.88;5037732;28;20204;-71
2023/10/20 05:30:42;;;;;;;16.33;9.40;;;;;;;13.41;100.00;97036.47;5027431;28;20227;-70
2023/10/20 05:33:09;;;;;;;18.23;9.67;;;;;;;13.35;100.00;97026.16;5035538;28;20202;-72
2023/10/20 05:35:35;;;;;;;16.60;9.53;;;;;;;13.35;100.00;97009.38;5036055;28;20234;-72
2023/10/20 05:38:06;;;;;;;16.70;9.80;;;;;;;13.32;100.00;97001.56;5039971;28;20200;-72
2023/10/20 05:40:35;;;;;;;17.37;9.77;;;;;;;13.37;100.00;96999.50;5036782;28;20219;-72
2023/10/20 05:43:03;;;;;;;20.20;10.53;;;;;;;13.31;100.00;96992.72;5037509;28;20233;-72
2023/10/20 05:45:32;;;;;;;18.40;10.37;;;;;;;13.33;100.00;96987.31;5036541;28;20206;-73
2023/10/20 05:47:59;;;;;;;18.73;10.40;;;;;;;13.30;100.00;96982.16;5033510;28;20217;-73
2023/10/20 05:50:26;;;;;;;19.50;10.47;;;;;;;13.29;100.00;96986.63;5040774;28;20230;-71
2023/10/20 05:52:52;;;;;;;20.17;10.50;;;;;;;13.28;100.00;96986.72;5034403;28;20285;-72
2023/10/20 05:55:19;;;;;;;26.63;10.83;;;;;;;13.28;100.00;96992.03;5043465;28;20738;-71
2023/10/20 05:57:45;;;;;;;17.27;10.57;;;;;;;13.26;100.00;96996.56;5038406;28;20281;-71
2023/10/20 06:00:14;;;;;;;22.13;10.73;;;;;;;13.22;100.00;96998.50;5035969;28;20579;-72
2023/10/20 06:02:41;;;;;;;24.30;11.60;;;;;;;13.20;100.00;96994.19;5031530;28;20234;-70
2023/10/20 06:05:09;;;;;;;19.73;11.30;;;;;;;13.22;100.00;97011.81;5036590;28;20199;-70
2023/10/20 06:07:36;;;;;;;24.23;12.33;;;;;;;13.20;100.00;97015.44;5030414;28;20679;-70
2023/10/20 06:10:03;;;;;;;21.07;12.30;;;;;;;13.24;100.00;97015.25;5034219;28;20646;-68
2023/10/20 06:12:29;;;;;;;24.37;12.00;;;;;;;13.31;100.00;97013.13;5040878;28;20199;-68
2023/10/20 06:14:55;;;;;;;24.03;12.70;;;;;;;13.29;100.00;97005.22;5042033;28;20226;-69
2023/10/20 06:17:23;;;;;;;25.53;13.30;;;;;;;13.27;100.00;96988.50;5038490;28;20342;-69
2023/10/20 06:19:49;;;;;;;23.33;12.97;;;;;;;13.28;100.00;96987.56;5034383;28;20230;-68
2023/10/20 06:22:16;;;;;;;24.77;12.40;;;;;;;13.26;100.00;96986.78;5037936;28;20720;-68
2023/10/20 06:24:43;;;;;;;23.40;12.50;;;;;;;13.21;100.00;96980.84;5034991;28;20461;-68
2023/10/20 06:27:11;;;;;;;23.97;13.03;;;;;;;13.21;100.00;96993.25;5031384;28;20625;-69
2023/10/20 06:29:46;;;;;;;23.77;13.27;;;;;;;13.16;100.00;96978.38;5032790;28;20211;-69
2023/10/20 06:32:56;;;;;;;26.70;12.40;;;;;;;13.22;100.00;96982.56;5037403;28;20191;-70
2023/10/20 06:35:03;;;;;;;25.77;11.97;;;;;;;13.22;100.00;96979.06;5039323;28;20209;-70
2023/10/20 06:40:15;;;;;;;27.93;12.83;;;;;;;13.19;100.00;96945.50;5033303;28;20241;-70
2023/10/20 06:42:43;;;;;;;22.80;12.57;;;;;;;13.20;100.00;96933.06;5037646;28;20302;-70
2023/10/20 06:45:11;;;;;;;23.43;12.10;;;;;;;13.16;100.00;96927.03;5036199;28;20290;-70
2023/10/20 06:47:41;;;;;;;19.93;11.67;;;;;;;13.13;100.00;96913.91;5043682;28;20207;-71
2023/10/20 06:50:10;;;;;;;21.70;12.60;;;;;;;13.16;100.00;96903.97;5032530;28;20227;-71
2023/10/20 06:52:37;;;;;;;24.53;12.00;;;;;;;13.13;100.00;96882.91;5038553;28;20281;-71
2023/10/20 06:55:04;;;;;;;24.13;12.40;;;;;;;13.12;100.00;96877.66;5033458;28;20697;-72
2023/10/20 06:57:50;;;;;;;24.10;12.40;;;;;;;13.16;100.00;96855.31;5041543;28;20205;-70
2023/10/20 07:00:17;;;;;;;23.00;12.97;;;;;;;13.13;100.00;96848.34;5044860;28;20222;-68
2023/10/20 07:02:46;;;;;;;22.13;12.17;;;;;;;13.11;100.00;96847.56;5031553;28;20718;-69
2023/10/20 07:05:14;;;;;;;23.07;12.07;;;;;;;13.10;100.00;96850.31;5034100;28;20203;-68
2023/10/20 07:07:41;;;;;;;25.67;12.27;;;;;;;13.11;100.00;96855.56;5039062;28;20234;-69
2023/10/20 07:10:10;;;;;;;22.03;12.73;;;;;;;13.09;100.00;96861.88;5039638;28;20233;-70
2023/10/20 07:12:37;;;;;;;26.57;13.03;;;;;;;13.05;100.00;96858.53;5040111;28;20729;-69
2023/10/20 07:15:05;;;;;;;23.23;12.03;;;;;;;13.05;100.00;96871.81;5038600;28;20598;-69
2023/10/20 07:17:32;;;;;;;22.63;12.47;;;;;;;13.05;100.00;96884.25;5042781;28;20207;-71
2023/10/20 07:19:59;;;;;;;21.73;13.00;;;;;;;13.07;100.00;96883.22;5041594;28;20203;-71
2023/10/20 07:22:26;;;;;;;26.10;12.87;;;;;;;13.10;100.00;96901.66;5042875;28;20215;-69
2023/10/20 07:24:55;;;;;;;30.50;13.17;;;;;;;13.10;100.00;96900.78;5041077;28;20203;-70
2023/10/20 07:27:22;;;;;;;21.53;12.53;;;;;;;13.10;100.00;96885.72;5039739;28;21198;-69
2023/10/20 07:29:48;;;;;;;20.53;11.83;;;;;;;13.15;100.00;96873.03;5036806;28;20675;-69
2023/10/20 07:32:16;;;;;;;24.73;13.13;;;;;;;13.16;100.00;96860.63;5045979;28;20283;-71
2023/10/20 07:34:43;;;;;;;26.90;12.97;;;;;;;13.18;100.00;96875.56;5045452;28;20211;-69
2023/10/20 07:37:10;;;;;;;23.30;12.80;;;;;;;13.14;100.00;96866.00;5044803;28;20292;-70
2023/10/20 07:39:37;;;;;;;23.20;12.13;;;;;;;13.14;100.00;96868.66;5043151;28;20289;-74
2023/10/20 07:42:04;;;;;;;24.90;11.70;;;;;;;13.17;100.00;96865.88;5037464;28;20223;-70
2023/10/20 07:44:32;;;;;;;23.70;11.83;;;;;;;13.15;100.00;96867.72;5044960;28;20233;-72
2023/10/20 07:47:00;;;;;;;26.63;12.87;;;;;;;13.12;100.00;96857.25;5040162;28;20678;-72
2023/10/20 07:49:26;;;;;;;24.00;12.47;;;;;;;13.19;100.00;96852.50;5038581;28;20214;-70
2023/10/20 07:51:53;;;;;;;22.87;12.07;;;;;;;13.16;100.00;96858.81;5036897;28;20222;-70
2023/10/20 07:54:20;;;;;;;20.40;10.90;;;;;;;13.21;100.00;96853.31;5035286;28;20210;-69
2023/10/20 07:56:47;;;;;;;24.70;12.13;;;;;;;13.25;100.00;96852.22;5040762;28;20295;-71
2023/10/20 07:59:14;;;;;;;22.60;10.57;;;;;;;13.27;100.00;96846.81;5038493;28;20196;-69
2023/10/20 08:01:40;;;;;;;24.33;11.10;;;;;;;13.33;100.00;96846.47;5039065;28;20231;-69
2023/10/20 08:04:07;;;;;;;21.40;11.40;;;;;;;13.40;100.00;96847.84;5038949;28;20222;-68
2023/10/20 08:06:34;;;;;;;20.30;10.90;;;;;;;13.39;100.00;96840.81;5045749;28;20603;-69
2023/10/20 08:09:02;;;;;;;20.97;11.23;;;;;;;13.40;100.00;96835.41;5037538;28;20203;-68
2023/10/20 08:11:28;;;;;;;16.80;10.30;;;;;;;13.55;100.00;96835.50;5047539;28;20305;-70
2023/10/20 08:13:55;;;;;;;18.27;10.40;;;;;;;13.62;100.00;96824.47;5041020;28;20253;-70
2023/10/20 08:16:21;;;;;;;22.80;11.10;;;;;;;13.55;100.00;96817.75;5038250;28;20279;-69
2023/10/20 08:18:48;;;;;;;19.23;10.70;;;;;;;13.52;100.00;96815.25;5040992;28;20214;-68
2023/10/20 08:21:16;;;;;;;19.67;10.17;;;;;;;13.52;100.00;96819.72;5040109;28;20281;-70
2023/10/20 08:23:43;;;;;;;18.90;10.97;;;;;;;13.48;100.00;96819.03;5044301;28;20265;-70
2023/10/20 08:26:16;;;;;;;18.60;10.57;;;;;;;13.53;100.00;96843.56;5042552;28;20206;-69
2023/10/20 08:28:42;;;;;;;22.20;11.33;;;;;;;13.47;100.00;96863.38;5036087;28;20705;-68
2023/10/20 08:31:13;;;;;;;17.20;9.90;;;;;;;13.48;100.00;96862.44;5036613;28;20366;-69
2023/10/20 08:33:40;;;;;;;18.20;10.87;;;;;;;13.57;100.00;96879.66;5037105;28;20302;-70
2023/10/20 08:36:11;;;;;;;21.20;10.70;;;;;;;13.56;100.00;96888.59;5041459;28;20650;-69
2023/10/20 08:38:46;;;;;;;19.30;10.47;;;;;;;13.62;100.00;96892.75;5033596;28;20257;-69
2023/10/20 08:41:16;;;;;;;19.60;10.83;;;;;;;13.72;100.00;96897.47;5035755;28;20681;-68
2023/10/20 08:43:44;;;;;;;18.40;10.20;;;;;;;13.90;100.00;96902.69;5037897;28;20233;-70
2023/10/20 08:46:13;;;;;;;18.70;9.97;;;;;;;13.98;100.00;96900.44;5036493;28;20652;-70
2023/10/20 08:48:41;;;;;;;18.93;10.27;;;;;;;14.14;100.00;96892.47;5036788;28;20199;-69
2023/10/20 08:51:10;;;;;;;15.90;9.83;;;;;;;14.31;100.00;96897.69;5035670;28;20302;-69
2023/10/20 08:53:37;;;;;;;18.00;10.43;;;;;;;14.44;100.00;96904.06;5040728;28;20199;-68
2023/10/20 08:56:05;;;;;;;17.70;9.23;;;;;;;14.46;100.00;96902.16;5034489;28;20218;-68
2023/10/20 08:58:31;;;;;;;16.07;9.90;;;;;;;14.48;100.00;96907.41;5044568;28;20206;-69
2023/10/20 09:00:58;;;;;;;18.00;9.50;;;;;;;14.51;100.00;96921.41;5037159;28;20249;-68
2023/10/20 09:03:37;;;;;;;17.60;9.00;;;;;;;14.58;100.00;96921.88;5041159;28;20215;-69
2023/10/20 09:06:07;;;;;;;15.53;8.47;;;;;;;14.58;100.00;96911.25;5037329;28;20219;-69
2023/10/20 09:08:34;;;;;;;17.87;9.27;;;;;;;14.60;100.00;96923.50;5039244;28;20203;-68
2023/10/20 09:11:01;;;;;;;18.60;8.77;;;;;;;14.66;100.00;96909.84;5037013;28;20691;-69
2023/10/20 09:13:34;;;;;;;18.33;9.60;;;;;;;14.90;100.00;96910.19;5041972;28;20199;-69
2023/10/20 09:16:03;;;;;;;16.33;9.17;;;;;;;15.05;100.00;96911.94;5034870;28;20648;-69
2023/10/20 09:18:31;;;;;;;17.27;9.13;;;;;;;15.14;100.00;96910.53;5044103;28;20203;-69
2023/10/20 09:21:03;;;;;;;18.27;9.57;;;;;;;15.10;100.00;96893.00;5040070;28;20267;-69
2023/10/20 09:23:32;;;;;;;17.80;9.03;;;;;;;15.18;100.00;96895.19;5032396;28;20225;-69
2023/10/20 09:25:58;;;;;;;13.97;8.93;;;;;;;15.19;100.00;96899.56;5037975;28;20653;-70
2023/10/20 09:28:25;;;;;;;16.03;9.33;;;;;;;15.15;100.00;96900.72;5035821;28;20199;-69
2023/10/20 09:30:54;;;;;;;16.07;9.37;;;;;;;15.08;100.00;96891.38;5035292;28;20229;-70
2023/10/20 09:33:21;;;;;;;14.50;8.53;;;;;;;14.80;100.00;96898.34;5039320;28;20202;-69
2023/10/20 09:35:49;;;;;;;17.13;9.20;;;;;;;14.72;100.00;96904.16;5037879;28;20208;-69
2023/10/20 09:38:22;;;;;;;18.30;9.13;;;;;;;14.73;100.00;96929.81;5037234;28;20664;-69
2023/10/20 09:40:56;;;;;;;15.37;9.10;;;;;;;14.69;100.00;96925.63;5038000;28;20657;-69
2023/10/20 09:43:35;;;;;;;14.70;9.47;;;;;;;14.64;100.00;96930.38;5039569;28;20218;-69
2023/10/20 09:46:12;;;;;;;22.13;9.10;;;;;;;14.60;100.00;96934.16;5044554;28;20199;-70
2023/10/20 09:48:40;;;;;;;15.20;9.43;;;;;;;14.58;100.00;96951.19;5036664;28;20213;-70
2023/10/20 09:51:08;;;;;;;17.20;8.53;;;;;;;14.54;100.00;96961.16;5043743;28;20571;-69
2023/10/20 09:53:36;;;;;;;20.33;9.80;;;;;;;14.65;100.00;96958.72;5034182;28;20203;-69
2023/10/20 09:56:04;;;;;;;25.33;10.13;;;;;;;14.88;100.00;96977.84;5034646;28;20214;-71
2023/10/20 09:58:34;;;;;;;16.33;9.53;;;;;;;14.91;100.00;96967.88;5041088;28;20248;-70
2023/10/20 10:01:00;;;;;;;17.23;8.57;;;;;;;15.02;100.00;96954.75;5043732;28;20238;-70
2023/10/20 10:03:37;;;;;;;14.63;9.07;;;;;;;14.83;100.00;96953.28;5041629;28;20211;-70
2023/10/20 10:06:09;;;;;;;17.10;9.73;;;;;;;14.83;100.00;96955.94;5034682;28;20214;-69
2023/10/20 10:08:43;;;;;;;15.37;9.23;;;;;;;14.91;100.00;96956.34;5037692;28;20199;-69
2023/10/20 10:11:18;;;;;;;17.00;9.40;;;;;;;15.01;100.00;96958.38;5042182;28;20231;-68
2023/10/20 10:13:44;;;;;;;15.90;9.17;;;;;;;15.19;100.00;96960.88;5032882;28;20203;-68
2023/10/20 10:16:13;;;;;;;15.97;9.40;;;;;;;15.33;100.00;96959.13;5041459;28;20203;-69
2023/10/20 10:18:45;;;;;;;16.03;9.47;;;;;;;15.64;100.00;96965.28;5039621;28;20601;-69
2023/10/20 10:21:31;;;;;;;15.73;9.73;;;;;;;15.88;100.00;96957.53;5037759;28;20232;-69
2023/10/20 10:24:15;;;;;;;16.67;9.20;;;;;;;16.15;100.00;96954.94;5039885;28;20230;-69
2023/10/20 10:26:53;;;;;;;14.87;9.10;;;;;;;16.37;100.00;96949.06;5040586;28;20697;-69
2023/10/20 10:29:47;;;;;;;14.03;8.97;;;;;;;16.46;100.00;96936.00;5041791;28;20226;-69
2023/10/20 10:32:14;;;;;;;12.63;7.77;;;;;;;16.56;100.00;96949.59;5037368;28;20659;-68
2023/10/20 10:34:45;;;;;;;12.50;8.47;;;;;;;16.55;100.00;96947.88;5045627;28;20207;-69
2023/10/20 10:37:14;;;;;;;13.17;7.37;;;;;;;16.47;100.00;96936.84;5037432;28;20326;-69
2023/10/20 10:39:40;;;;;;;11.90;7.67;;;;;;;16.53;100.00;96941.78;5036417;28;20212;-70
2023/10/20 10:42:07;;;;;;;12.07;7.40;;;;;;;16.57;100.00;96924.59;5034595;28;20242;-70
2023/10/20 10:44:37;;;;;;;12.97;7.80;;;;;;;16.63;100.00;96944.69;5044422;28;20200;-70
2023/10/20 10:47:18;;;;;;;11.90;7.83;;;;;;;16.67;100.00;96949.75;5045928;28;20207;-71
2023/10/20 10:49:48;;;;;;;16.80;8.87;;;;;;;16.67;100.00;96940.88;5044367;28;20280;-70
2023/10/20 10:52:15;;;;;;;13.57;8.47;;;;;;;16.48;100.00;96939.41;5045104;28;20282;-70
2023/10/20 10:54:41;;;;;;;12.00;7.47;;;;;;;16.35;100.00;96946.50;5043371;28;20206;-71
2023/10/20 10:57:09;;;;;;;13.80;8.23;;;;;;;16.43;100.00;96946.03;5039273;28;20608;-70
2023/10/20 10:59:36;;;;;;;12.97;8.03;;;;;;;16.46;100.00;96932.47;5040601;28;20199;-71
2023/10/20 11:02:05;;;;;;;17.93;9.10;;;;;;;16.67;100.00;96930.19;5041843;28;20636;-71
2023/10/20 11:04:32;;;;;;;13.90;8.73;;;;;;;16.97;100.00;96940.66;5045173;28;20302;-71
2023/10/20 11:06:59;;;;;;;13.10;7.97;;;;;;;17.06;100.00;96930.19;5042232;28;20204;-70
2023/10/20 11:09:29;;;;;;;13.07;7.20;;;;;;;16.97;100.00;96925.47;5037922;28;20215;-71
2023/10/20 11:11:56;;;;;;;15.17;8.17;;;;;;;17.22;100.00;96922.00;5043309;28;20754;-70
2023/10/20 11:14:24;;;;;;;11.43;7.57;;;;;;;17.62;100.00;96924.59;5039868;28;20290;-70
2023/10/20 11:16:51;;;;;;;11.40;7.80;;;;;;;17.91;100.00;96923.38;5041067;28;20212;-71
2023/10/20 11:19:17;;;;;;;16.55;8.95;;;;;;;17.97;100.00;96919.41;5041938;28;20622;-70
2023/10/20 11:21:49;;;;;;;12.95;6.72;;;;;;;17.78;100.00;96926.09;5041890;28;20226;-69
2023/10/20 11:24:34;;;;;;;12.82;7.00;;;;;;;17.53;100.00;96918.88;5041180;28;20232;-70
2023/10/20 11:27:05;;;;;;;12.88;7.53;;;;;;;17.48;100.00;96917.50;5040537;28;20207;-71
2023/10/20 11:29:32;;;;;;;11.63;7.22;;;;;;;17.27;100.00;96916.34;5037885;28;20195;-71
2023/10/20 11:32:18;;;;;;;11.68;7.75;;;;;;;17.19;100.00;96920.38;5037865;28;20199;-71
2023/10/20 11:34:45;;;;;;;15.02;7.82;;;;;;;17.32;100.00;96919.53;5036797;28;20231;-70
2023/10/20 11:37:12;;;;;;;13.27;7.10;;;;;;;17.60;100.00;96905.94;5043378;28;20298;-70
2023/10/20 11:39:39;;;;;;;11.27;7.35;;;;;;;17.68;100.00;96886.72;5044508;28;20199;-70
2023/10/20 11:42:06;;;;;;;10.52;7.10;;;;;;;17.86;100.00;96888.06;5042553;28;20582;-70
2023/10/20 11:44:32;;;;;;;11.25;6.60;;;;;;;17.84;100.00;96893.53;5040277;28;20307;-70
2023/10/20 11:46:59;;;;;;;11.75;7.15;;;;;;;17.85;100.00;96899.72;5047374;28;20688;-70
2023/10/20 11:49:26;;;;;;;12.70;7.93;;;;;;;17.82;100.00;96899.94;5055216;28;20203;-70
2023/10/20 11:51:52;;;;;;;12.57;7.45;;;;;;;17.76;100.00;96909.28;5052818;28;20223;-71
2023/10/20 11:54:21;;;;;;;16.05;8.13;;;;;;;17.54;100.00;96907.22;5048651;28;20195;-70
2023/10/20 11:56:48;;;;;;;10.75;6.85;;;;;;;17.35;100.00;96906.81;5051245;28;20234;-70
2023/10/20 11:59:15;;;;;;;12.60;7.88;;;;;;;17.34;100.00;96905.09;5048802;28;20221;-70
2023/10/20 12:01:43;;;;;;;12.55;7.65;;;;;;;17.42;100.00;96905.41;5046580;28;20688;-70
2023/10/20 12:04:10;;;;;;;14.05;7.40;;;;;;;17.67;100.00;96907.25;5042164;28;20219;-70
2023/10/20 12:06:37;;;;;;;10.70;6.93;;;;;;;17.62;100.00;96912.06;5036619;28;20207;-70
2023/10/20 12:09:10;;;;;;;13.38;7.68;;;;;;;17.43;100.00;96907.13;5034995;28;20214;-70
2023/10/20 12:11:40;;;;;;;13.75;7.68;;;;;;;17.22;100.00;96903.28;5037817;28;20225;-70
2023/10/20 12:14:09;;;;;;;13.53;7.83;;;;;;;17.05;100.00;96908.91;5043543;28;20635;-70
2023/10/20 12:16:35;;;;;;;13.33;7.77;;;;;;;16.68;100.00;96911.41;5043566;28;20199;-70
2023/10/20 12:19:03;;;;;;;12.80;7.53;;;;;;;16.56;100.00;96921.06;5041414;28;20201;-69
2023/10/20 12:21:30;;;;;;;16.87;8.57;;;;;;;16.49;100.00;96924.25;5043648;28;20238;-70
2023/10/20 12:23:57;;;;;;;13.50;8.20;;;;;;;16.40;100.00;96930.16;5040997;28;20215;-70
2023/10/20 12:26:24;;;;;;;15.47;7.70;;;;;;;16.30;100.00;96935.25;5036850;28;20198;-70
2023/10/20 12:28:51;;;;;;;12.83;7.20;;;;;;;16.32;100.00;96933.34;5040487;28;20207;-70
2023/10/20 12:31:18;;;;;;;11.23;6.80;;;;;;;16.41;100.00;96945.22;5041055;28;20214;-70
2023/10/20 12:33:45;;;;;;;9.83;6.30;;;;;;;16.43;100.00;96941.53;5044056;28;20658;-70
2023/10/20 12:36:16;;;;;;;12.13;6.97;;;;;;;16.39;100.00;96957.81;5042026;28;20199;-70
2023/10/20 12:38:46;;;;;;;9.40;6.17;;;;;;;16.35;100.00;96953.66;5040865;28;20203;-71
2023/10/20 12:41:16;;;;;;;11.63;6.13;;;;;;;16.26;100.00;96965.78;5042253;28;20376;-69
2023/10/20 12:43:44;;;;;;;11.07;6.33;;;;;;;16.18;100.00;96965.44;5038868;28;20223;-70
2023/10/20 12:46:11;;;;;;;10.03;6.10;;;;;;;16.09;100.00;96966.88;5036802;28;20207;-70
2023/10/20 12:48:41;;;;;;;9.63;5.80;;;;;;;16.02;100.00;96964.69;5037574;28;20207;-70
2023/10/20 12:51:08;;;;;;;8.77;5.70;;;;;;;16.03;100.00;96961.06;5041512;28;20227;-71
2023/10/20 12:53:36;;;;;;;9.50;6.30;;;;;;;16.01;100.00;96973.63;5038812;28;20230;-70
2023/10/20 12:56:03;;;;;;;12.10;6.30;;;;;;;16.06;100.00;96980.41;5041879;28;20211;-71
2023/10/20 12:58:30;;;;;;;13.50;6.80;;;;;;;16.12;100.00;96973.84;5040165;28;20207;-71
2023/10/20 13:00:57;;;;;;;10.77;6.13;;;;;;;16.22;100.00;96961.59;5041735;28;20602;-71
2023/10/20 13:03:24;;;;;;;10.53;6.57;;;;;;;16.32;100.00;96965.38;5044384;28;20323;-71
2023/10/20 13:05:50;;;;;;;9.53;6.10;;;;;;;16.41;100.00;96977.28;5040860;28;20199;-70
2023/10/20 13:08:17;;;;;;;10.70;5.63;;;;;;;16.33;100.00;96985.78;5035927;28;21469;-70
2023/10/20 13:10:45;;;;;;;9.67;5.43;;;;;;;16.33;100.00;96985.78;5041466;28;20284;-71
2023/10/20 13:13:11;;;;;;;8.80;5.33;;;;;;;16.25;100.00;96977.41;5034755;28;20204;-72
2023/10/20 13:15:40;;;;;;;9.47;5.20;;;;;;;16.19;100.00;96976.00;5033185;28;20238;-72
2023/10/20 13:18:06;;;;;;;8.03;5.00;;;;;;;16.20;100.00;96977.72;5040840;28;20199;-72
2023/10/20 13:20:33;;;;;;;8.23;4.57;;;;;;;16.29;100.00;96993.16;5036315;28;20280;-70
2023/10/20 13:23:00;;;;;;;7.83;5.00;;;;;;;16.51;100.00;97000.66;5033986;28;20206;-69
2023/10/20 13:25:27;;;;;;;8.30;4.67;;;;;;;16.75;100.00;97000.88;5037773;28;20209;-69
2023/10/20 13:27:54;;;;;;;7.50;4.00;;;;;;;16.84;100.00;97002.97;5040846;28;20248;-70
2023/10/20 13:30:21;;;;;;;5.63;3.70;;;;;;;16.90;100.00;96996.34;5037397;28;20697;-69
2023/10/20 13:32:48;;;;;;;4.90;3.40;;;;;;;17.01;100.00;96998.31;5042718;28;20203;-70
2023/10/20 13:35:16;;;;;;;5.23;3.37;;;;;;;17.08;100.00;96994.25;5039710;28;20210;-69
2023/10/20 13:37:42;;;;;;;5.53;3.53;;;;;;;17.21;100.00;96998.69;5037178;28;20676;-71
2023/10/20 13:40:09;;;;;;;4.63;3.13;;;;;;;17.27;100.00;97002.78;5041634;28;20222;-69
2023/10/20 13:42:36;;;;;;;4.70;3.10;;;;;;;17.32;100.00;97013.16;5039988;28;20202;-70
2023/10/20 13:45:07;;;;;;;4.07;2.83;;;;;;;17.40;100.00;96998.28;5037374;28;20225;-70
2023/10/20 13:47:34;;;;;;;3.53;2.43;;;;;;;17.57;100.00;96998.94;5040173;28;20663;-69
2023/10/20 13:50:03;;;;;;;2.17;1.70;;;;;;;17.78;100.00;97000.19;5045020;28;20614;-69
2023/10/20 13:52:30;;;;;;;3.00;1.80;;;;;;;17.87;100.00;96993.31;5037550;28;20294;-70
2023/10/20 13:54:56;;;;;;;5.47;2.15;;;;;;;17.93;100.00;97011.63;5041159;28;20697;-70
2023/10/20 13:57:22;;;;;;;2.20;1.65;;;;;;;17.95;100.00;97018.56;5034572;28;20337;-70
2023/10/20 13:59:49;;;;;;;1.48;1.08;;;;;;;17.99;100.00;97024.56;5036595;28;20230;-69
2023/10/20 14:02:17;;;;;;;1.58;1.25;;;;;;;17.94;100.00;97029.41;5040143;28;20584;-70
2023/10/20 14:04:44;;;;;;;5.13;0.95;;;;;;;17.86;100.00;97035.28;5040044;28;20227;-70
2023/10/20 14:07:10;;;;;;;2.22;0.75;;;;;;;17.84;100.00;97027.38;5034073;28;20202;-70
2023/10/20 14:09:36;;;;;;;2.55;0.90;;;;;;;17.79;100.00;97021.47;5043735;28;20286;-70
2023/10/20 14:12:04;;;;;;;2.22;1.20;;;;;;;17.64;100.00;97043.06;5041577;28;20223;-70
2023/10/20 14:14:31;;;;;;;0.35;0.35;;;;;;;17.42;100.00;97055.22;5033526;28;20262;-70
2023/10/20 14:17:05;;;;;;;1.07;0.30;;;;;;;17.21;100.00;97065.56;5039019;28;20302;-70
2023/10/20 14:19:33;;;;;;;0.40;0.40;;;;;;;17.00;100.00;97077.66;5045454;28;20289;-69
2023/10/20 14:22:01;;;;;;;0.27;0.27;;;;;;;17.01;100.00;97094.56;5050100;28;20218;-69
2023/10/20 14:24:27;;;;;;;0.50;0.40;;;;;;;17.00;100.00;97109.72;5044173;28;20732;-69
2023/10/20 14:26:58;;;;;;;0.70;0.30;;;;;;;16.98;100.00;97118.81;5048403;28;20248;-71
2023/10/20 14:29:25;;;;;;;0.50;0.23;;;;;;;16.88;100.00;97103.38;5047197;28;20272;-70
2023/10/20 14:31:52;;;;;;;0.40;0.30;;;;;;;16.76;100.00;97114.84;5043709;28;20219;-71
2023/10/20 14:34:18;;;;;;;0.20;0.20;;;;;;;16.74;100.00;97132.78;5043403;28;20317;-70
2023/10/20 14:36:45;;;;;;;0.20;0.20;;;;;;;16.75;100.00;97134.50;5045448;28;20226;-69
2023/10/20 14:39:12;;;;;;;0.30;0.30;;;;;;;16.76;100.00;97138.03;5045037;28;20620;-70
2023/10/20 14:41:38;;;;;;;0.40;0.37;;;;;;;16.73;100.00;97148.91;5040636;28;20294;-70
2023/10/20 14:44:05;;;;;;;1.10;0.47;;;;;;;16.74;100.00;97155.97;5042057;28;20214;-69
2023/10/20 14:46:31;;;;;;;0.30;0.20;;;;;;;16.69;100.00;97163.44;5043714;28;20297;-70
2023/10/20 14:48:58;;;;;;;0.30;0.30;;;;;;;16.67;100.00;97160.84;5044777;28;20210;-70
2023/10/20 14:51:24;;;;;;;0.30;0.30;;;;;;;16.59;100.00;97152.44;5045336;28;20246;-70
2023/10/20 14:53:51;;;;;;;0.30;0.30;;;;;;;16.59;100.00;97158.63;5045922;28;20651;-69
2023/10/20 14:56:17;;;;;;;0.30;0.30;;;;;;;16.58;100.00;97175.63;5043408;28;20199;-69
2023/10/20 14:58:45;;;;;;;0.30;0.30;;;;;;;16.53;100.00;97171.53;5039975;28;20685;-70
2023/10/20 15:01:11;;;;;;;0.80;0.20;;;;;;;16.54;100.00;97181.25;5044574;28;20701;-70
2023/10/20 15:03:38;;;;;;;0.30;0.30;;;;;;;16.50;100.00;97177.06;5038654;28;20227;-70
2023/10/20 15:06:05;;;;;;;0.30;0.30;;;;;;;16.60;100.00;97199.56;5039005;28;20203;-70
2023/10/20 15:08:33;;;;;;;0.73;0.40;;;;;;;16.60;100.00;97194.22;5039927;28;20583;-70
2023/10/20 15:11:07;;;;;;;0.37;0.30;;;;;;;16.60;100.00;97191.56;5043372;28;20309;-70
2023/10/20 15:13:35;;;;;;;1.60;0.50;;;;;;;16.52;100.00;97185.84;5040856;28;20255;-70
2023/10/20 15:16:02;;;;;;;2.07;0.33;;;;;;;16.48;100.00;97192.31;5042803;28;20211;-70
2023/10/20 15:18:29;;;;;;;1.13;0.33;;;;;;;16.52;100.00;97192.03;5043657;28;20202;-70
2023/10/20 15:20:57;;;;;;;1.27;0.80;;;;;;;16.48;100.00;97176.28;5045680;28;20219;-70
2023/10/20 15:23:23;;;;;;;0.57;0.30;;;;;;;16.49;100.00;97194.91;5044672;28;20200;-70
2023/10/20 15:25:50;;;;;;;0.80;0.50;;;;;;;16.51;100.00;97206.34;5052348;28;20226;-70
2023/10/20 15:28:16;;;;;;;0.33;0.30;;;;;;;16.59;100.00;97190.69;5039085;28;20236;-70
2023/10/20 15:30:43;;;;;;;1.27;0.93;;;;;;;16.70;100.00;97192.72;5046248;28;20249;-69
2023/10/20 15:33:09;;;;;;;1.00;0.40;;;;;;;16.79;100.00;97194.81;5045285;28;20208;-70
2023/10/20 15:35:40;;;;;;;0.87;0.73;;;;;;;16.83;100.00;97201.72;5034079;28;20207;-70
2023/10/20 15:38:10;;;;;;;1.00;0.50;;;;;;;16.82;100.00;97216.03;5042717;28;20206;-70
2023/10/20 15:40:37;;;;;;;0.80;0.30;;;;;;;16.77;100.00;97220.78;5042581;28;20540;-71
2023/10/20 15:43:04;;;;;;;0.37;0.30;;;;;;;16.82;100.00;97231.22;5040087;28;20203;-70
2023/10/20 15:45:30;;;;;;;1.30;0.50;;;;;;;16.79;100.00;97242.06;5037489;28;20407;-71
2023/10/20 15:48:00;;;;;;;0.40;0.30;;;;;;;16.67;100.00;97250.84;5038994;28;20767;-70
2023/10/20 15:50:26;;;;;;;1.50;0.30;;;;;;;16.57;100.00;97259.41;5056894;22;20207;-74
2023/10/20 15:52:53;;;;;;;0.40;0.27;;;;;;;16.47;100.00;97273.41;5082002;28;20296;-74
2023/10/20 15:55:19;;;;;;;1.37;0.33;;;;;;;16.26;100.00;97283.56;5083256;28;20194;-75